• Join FlightAware (Why Join?)
  • Login
  • US Flag GB Flag 
06:44 EDT


 

Airport Tracker/Info


-or-


 

Live Flight TrackerFlight Track Log ✈ ABX902 ✈ 03-May-2013 ✈ KMIA - KCVG

Flight Track Log - Related Links

Times and Time Zones

All times are in EDT time to prevent confusion due to time zone crossing. See the ABX902 flight status page for this flight to view local times or setup timezone preferences in your user account.

Time Position Orientation Groundspeed Altitude Reporting Facility
EDT Latitude Longitude Course Direction KTS MPH feet Rate Location/Type
22:58 25.7847 -80.3156 267° West 153 176 1,000  Level Miami Center
23:00 25.7808 -80.3894 267° West 225 259 2,900 1,680 Climbing Miami Center
23:01 25.8447 -80.4211 336° Northwest 265 305 5,300 2,340 Climbing Miami Center
23:02 25.9178 -80.4211 360° North 265 305 8,000 2,640 Climbing Miami Center
23:03 25.9953 -80.4211 360° North 270 311 10,600 1,860 Climbing Miami Center
23:04 26.0869 -80.4261 357° North 291 335 11,800 1,860 Climbing Miami Center
23:05 26.1892 -80.4269 360° North 329 379 14,400 2,580 Climbing Miami Center
23:06 26.2806 -80.4550 345° North 362 417 17,000 2,580 Climbing Miami Center
23:07 26.3944 -80.4886 345° North 382 440 19,500 2,160 Climbing Miami Center
23:08 26.5003 -80.5244 343° North 392 451 21,300 1,860 Climbing Miami Center
23:09 26.6142 -80.5606 344° North 404 465 23,300 1,800 Climbing Miami Center
23:10 26.7281 -80.5989 343° North 420 483 25,000 1,680 Climbing Miami Center
23:11 26.8458 -80.6400 343° North 425 489 26,800 1,680 Climbing Miami Center
23:12 26.9661 -80.6764 345° North 436 502 28,400 1,500 Climbing Miami Center
23:13 27.0883 -80.7178 343° North 441 507 29,800 1,620 Climbing Miami Center
23:14 27.2103 -80.7547 345° North 446 513 31,700 1,740 Climbing Miami Center
23:15 27.3139 -80.7883 344° North 441 507 33,300 1,440 Climbing Miami Center
23:16 27.4381 -80.8256 345° North 441 507 34,600 1,260 Climbing Miami Center
23:17 27.5600 -80.8672 343° North 446 513 35,900 1,140 Climbing Miami Center
23:18 27.6803 -80.9042 345° North 446 513 36,900 480 Climbing Miami Center
23:19 27.8022 -80.9461 343° North 451 519 36,900  Level Miami Center
23:20 27.9261 -80.9858 344° North 458 527 36,900  Level Miami Center
23:21 28.0483 -81.0256 344° North 458 527 36,900  Level Miami Center
23:22 28.1703 -81.0653 344° North 452 520 36,900  Level Miami Center
23:23 28.3003 -81.1125 342° North 452 520 37,000  Climbing Miami Center
23:24 28.4139 -81.1500 344° North 457 526 37,000 -60 Level Miami Center
23:25 28.5519 -81.2003 342° North 453 521 36,900  Descending Jacksonville Center
23:26 28.6736 -81.2408 344° North 453 521 37,000  Climbing Jacksonville Center
23:27 28.7992 -81.2814 344° North 453 521 36,900 -60 Descending Jacksonville Center
23:28 28.9231 -81.3244 343° North 459 528 36,900  Level Jacksonville Center
23:29 29.0467 -81.3653 344° North 459 528 36,900  Level Jacksonville Center
23:30 29.1681 -81.4086 343° North 459 528 36,900  Level Jacksonville Center
23:31 29.3003 -81.4567 342° North 453 521 37,000  Climbing Jacksonville Center
23:32 29.4258 -81.4978 344° North 453 521 37,000  Level Jacksonville Center
23:33 29.5494 -81.5389 344° North 458 527 37,000  Level Jacksonville Center
23:34 29.6753 -81.5850 342° North 463 533 37,000  Level Jacksonville Center
23:35 29.7989 -81.6264 344° North 463 533 37,000  Level Jacksonville Center
23:36 29.9161 -81.6656 344° North 468 539 37,000  Level Jacksonville Center
23:37 30.0397 -81.7097 343° North 468 539 37,000 -60 Level Jacksonville Center
23:38 30.1781 -81.7536 345° North 458 527 36,900 -60 Descending Jacksonville Center
23:39 30.3014 -81.7956 344° North 463 533 36,900  Level Jacksonville Center
23:40 30.4272 -81.8397 343° North 463 533 36,900  Level Jacksonville Center
23:41 30.5528 -81.8842 343° North 457 526 37,000  Climbing Jacksonville Center
23:42 30.6658 -81.9289 341° North 463 533 36,900  Descending Jacksonville Center
23:43 30.7872 -81.9711 343° North 463 533 37,000  Climbing Jacksonville Center
23:44 30.9108 -82.0136 344° North 463 533 36,900 -60 Descending Jacksonville Center
23:45 31.0342 -82.0608 342° North 463 533 36,900  Level Jacksonville Center
23:46 31.1578 -82.1061 343° North 463 533 36,900  Level Jacksonville Center
23:47 31.2811 -82.1464 344° North 463 533 36,900  Level Jacksonville Center
23:48 31.4025 -82.1939 342° North 463 533 37,000  Climbing Jacksonville Center
23:49 31.5258 -82.2394 343° North 463 533 37,000  Level Jacksonville Center
23:50 31.6494 -82.2800 344° North 463 533 37,000  Level Jacksonville Center
23:51 31.7728 -82.3231 343° North 463 533 37,000  Level Jacksonville Center
23:52 31.9400 -82.3769 345° North 469 540 37,000  Level Atlanta Center
23:53 32.0617 -82.4239 342° North 469 540 37,000  Level Atlanta Center
23:54 32.1917 -82.4706 343° North 463 533 37,000  Level Atlanta Center
23:55 32.3236 -82.5175 343° North 463 533 37,000  Level Atlanta Center
23:56 32.4494 -82.5669 342° North 468 539 37,000  Level Atlanta Center
23:57 32.5775 -82.6142 343° North 468 539 37,000  Level Atlanta Center
23:58 32.7033 -82.6639 342° North 468 539 37,000  Level Atlanta Center
23:59 32.8331 -82.7114 343° North 473 544 37,000  Level Atlanta Center
00:00 32.9611 -82.7589 343° North 478 550 37,000  Level Atlanta Center
00:01 33.0889 -82.8042 343° North 483 556 37,000  Level Atlanta Center
00:02 33.2144 -82.8544 341° North 483 556 37,000  Level Atlanta Center
00:03 33.3486 -82.9000 344° North 496 571 37,000  Level Atlanta Center
00:04 33.4658 -82.9431 343° North 496 571 37,000  Level Atlanta Center
00:05 33.5936 -82.9914 343° North 496 571 37,000  Level Atlanta Center
00:06 33.7214 -83.0397 343° North 488 562 37,000  Level Atlanta Center
00:07 33.8553 -83.0883 343° North 488 562 37,000  Level Atlanta Center
00:08 33.9789 -83.1369 342° North 483 556 37,000  Level Atlanta Center
00:09 34.1128 -83.1858 343° North 489 563 37,000  Level Atlanta Center
00:10 34.2403 -83.2347 342° North 484 557 37,000  Level Atlanta Center
00:11 34.3722 -83.2864 342° North 490 564 37,000  Level Atlanta Center
00:12 34.5144 -83.3406 343° North 485 558 37,000  Level Atlanta Center
00:13 34.6461 -83.3900 343° North 485 558 37,000  Level Atlanta Center
00:14 34.7819 -83.4192 350° North 485 558 37,000  Level Atlanta Center
00:15 34.9156 -83.4461 351° North 485 558 37,000  Level Atlanta Center
00:16 35.0514 -83.4756 350° North 485 558 37,000  Level Atlanta Center
00:17 35.1892 -83.5000 352° North 485 558 37,000  Level Atlanta Center
00:18 35.3103 -83.5272 350° North 490 564 37,000  Level Atlanta Center
00:19 35.4481 -83.5569 350° North 495 570 37,000  Level Atlanta Center
00:20 35.5861 -83.5842 351° North 495 570 37,000  Level Atlanta Center
00:21 35.7197 -83.6117 351° North 495 570 37,000  Level Atlanta Center
00:22 35.8575 -83.6417 350° North 495 570 37,000  Level Atlanta Center
00:23 35.9911 -83.6717 350° North 495 570 37,000  Level Atlanta Center
00:25 36.3203 -83.7397 351° North 496 571 37,000  Level Indianapolis Center
00:26 36.4564 -83.7689 350° North 497 572 37,000  Level Indianapolis Center
00:27 36.5772 -83.7789 356° North 506 582 37,000  Level Indianapolis Center
00:28 36.7167 -83.7600 North 497 572 37,000  Level Indianapolis Center
00:29 36.8558 -83.7856 352° North 502 578 37,000  Level Indianapolis Center
00:30 36.9944 -83.8181 349° North 502 578 37,000 -60 Level Indianapolis Center
00:31 37.1328 -83.8508 349° North 503 579 36,900 -1,620 Descending Indianapolis Center
00:32 37.2944 -83.8900 349° North 503 579 33,800 -3,060 Descending Indianapolis Center
00:33 37.4336 -83.9219 350° North 505 581 30,700 -2,820 Descending Indianapolis Center
00:34 37.5683 -83.9517 350° North 492 566 28,200 -2,340 Descending Indianapolis Center
00:36 37.6972 -83.9814 350° North 473 544 26,000 -2,400 Descending Indianapolis Center
00:37 37.8244 -84.0111 350° North 464 534 23,400 -2,580 Descending Indianapolis Center
00:38 37.9478 -84.0389 350° North 451 519 20,800 -2,520 Descending Indianapolis Center
00:39 38.0694 -84.0667 350° North 442 509 18,400 -2,400 Descending Indianapolis Center
00:40 38.1908 -84.0933 350° North 442 509 16,000 -2,400 Descending Indianapolis Center
00:41 38.3083 -84.1228 349° North 431 496 13,600 -2,340 Descending Indianapolis Center
00:42 38.4214 -84.1497 349° North 416 479 11,300 -1,260 Descending Indianapolis Center
00:43 38.5153 -84.2100 333° Northwest 378 435 11,100 -180 Descending Indianapolis Center
00:44 38.6028 -84.2775 329° Northwest 366 421 11,000 -60 Descending Indianapolis Center
00:45 38.6764 -84.3331 329° Northwest 327 376 11,000 -300 Level Indianapolis Center
00:46 38.7539 -84.3869 332° Northwest 316 364 10,500 -840 Descending Indianapolis Center
00:47 38.8203 -84.4575 320° Northwest 322 371 9,400 -780 Descending Indianapolis Center
00:48 38.8214 -84.5606 271° West 278 320 9,000 -720 Descending Indianapolis Center
00:49 38.8247 -84.6469 273° West 251 289 8,000 -540 Descending Indianapolis Center
00:50 38.8267 -84.7325 272° West 243 280 8,000  Level Indianapolis Center
00:51 38.8297 -84.8178 273° West 241 277 8,000 -480 Level Indianapolis Center
00:52 38.8328 -84.9044 273° West 244 281 7,100 -960 Descending Indianapolis Center
00:53 38.8519 -84.9789 288° West 238 274 6,100 -600 Descending Indianapolis Center
00:54 38.9131 -85.0239 330° Northwest 251 289 6,000  Descending Indianapolis Center
00:55 38.9658 -85.0625 330° Northwest 227 261 6,100  Climbing Indianapolis Center
00:56 39.0206 -85.0428 16° North 217 250 6,100 -360 Level Indianapolis Center
00:57 39.0442 -84.9819 63° Northeast 196 226 5,400 -900 Descending Indianapolis Center
00:58 39.0475 -84.9200 86° East 179 206 4,400 -900 Descending Indianapolis Center
00:59 39.0464 -84.8575 91° East 172 198 3,700 -900 Descending Indianapolis Center
00:59 39.0500 -84.8333 79° East 156 180 3,100 -900 Descending Cincinnati TRACON
01:00 39.0500 -84.8000 90° East 116 133 2,500 -720 Descending Cincinnati TRACON
01:01 39.0500 -84.7500 90° East 109 125 1,900 -720 Descending Cincinnati TRACON